Decoded Metar for KMGM (MONTGOMERY in AL, USA) (IATA:MGM) | Meteo·Mobile Aviation Weather
aviador You're here:

KMGM Decoded Metar

MONTGOMERY in AL, USA
Report Time2018-10-22 14:53:00
UTC Time2018-10-22 15:07:16
Flight Rules vfr VFR
Wind090° at 07 kt
W.Decomp.*RWY 10: 6.9 kt HW 1.1 kt LCW
RWY 03: 3.4 kt HW 6.1 kt RCW
W.Rank090° ranks 1
Current wind is above 090° avg. (6.1)
Visibility9999 m
Phenomena:N/A
Clouds:N/A
Expected CloudBase > 3,200 ft AGL from Temp-Dew spread
CeilingNone
Temp15°C (ISA 0)
Dew Point07°C (59% RH)
AAT11.8°C
QNH1026 hPa
Density Alt-46 ft
Elevation207 ft
Report Wrong Elevation
Raw Report
METAR KMGM 221453Z 09007KT 10SM CLR 15/07 A3030 RMK AO2 SLP259 T01500067
50009=

Extra information for KMGM:More info

Metar Taf Metar & Taf Last 4 Metars F.Rules Stats Wind Profile Meteogram Temp Stats Airport Information Weather charts Add Link Nearby VenuesMetar ALERT Operation Metar Decoded Social comments

AIRNAV info for KMGM